createdAt,value
2017-05-09T20:10:53.944Z,10.76
2017-05-09T20:12:07.856Z,10.76
2017-05-09T20:13:21.863Z,10.71
2017-05-09T20:14:35.791Z,10.67
2017-05-09T20:15:50.358Z,10.53
2017-05-09T20:17:04.131Z,10.42
2017-05-09T20:18:18.142Z,10.27
2017-05-09T20:19:32.472Z,10.3
2017-05-09T20:20:46.746Z,10.23
2017-05-09T20:22:00.353Z,10.09
2017-05-09T20:23:16.764Z,10.07
2017-05-09T20:24:30.753Z,10.02
2017-05-09T20:25:45.133Z,10.06
2017-05-09T20:27:14.298Z,10.07
2017-05-09T20:28:28.267Z,10.07
2017-05-09T20:29:42.891Z,10.06
2017-05-09T20:30:56.983Z,10
2017-05-09T20:32:10.622Z,9.94
2017-05-09T20:33:24.286Z,9.94
2017-05-09T20:34:38.050Z,9.88
2017-05-09T20:35:52.139Z,9.74
2017-05-09T20:37:06.914Z,9.73
2017-05-09T20:38:21.356Z,9.55
2017-05-09T20:39:35.314Z,9.67
2017-05-09T20:40:49.241Z,9.55
2017-05-09T20:42:03.758Z,9.58
2017-05-09T20:43:18.275Z,9.56
2017-05-09T20:44:32.216Z,9.47
2017-05-09T20:46:05.271Z,9.3
2017-05-09T20:47:19.301Z,9.3
2017-05-09T20:48:33.134Z,9.24
2017-05-09T20:49:47.331Z,9.21
2017-05-09T20:51:00.902Z,9.24
2017-05-09T20:52:14.789Z,9.18
2017-05-09T20:53:29.236Z,9.21
2017-05-09T20:54:43.794Z,9.18
2017-05-09T20:55:57.251Z,9.16
2017-05-09T20:57:11.494Z,9.18
2017-05-09T20:58:25.598Z,8.96
2017-05-09T20:59:39.555Z,8.93
2017-05-09T21:00:54.536Z,8.9
2017-05-09T21:02:08.182Z,8.95
2017-05-09T21:03:21.643Z,8.93
2017-05-09T21:04:35.264Z,8.89
2017-05-09T21:05:49.715Z,8.78
2017-05-09T21:07:03.722Z,8.82
2017-05-09T21:08:18.162Z,8.78
2017-05-09T21:09:32.130Z,8.78
2017-05-09T21:10:45.618Z,8.61
2017-05-09T21:11:59.809Z,8.71
2017-05-09T21:13:13.574Z,8.64
2017-05-09T21:14:27.166Z,8.63
2017-05-09T21:15:40.606Z,8.63
2017-05-09T21:16:54.524Z,8.78
2017-05-09T21:18:08.867Z,8.81
2017-05-09T21:19:23.160Z,8.75
2017-05-09T21:20:37.043Z,8.77
2017-05-09T21:21:50.726Z,8.82
2017-05-09T21:23:04.231Z,8.74
2017-05-09T21:24:18.766Z,8.61
2017-05-09T21:25:32.593Z,8.6
2017-05-09T21:26:46.396Z,8.59
2017-05-09T21:27:59.888Z,8.56
2017-05-09T21:29:13.627Z,8.5
2017-05-09T21:30:29.066Z,8.44
2017-05-09T21:31:43.689Z,8.32
2017-05-09T21:32:57.229Z,8.32
2017-05-09T21:34:11.491Z,8.42
2017-05-09T21:35:24.999Z,8.49
2017-05-09T21:36:39.148Z,8.52
2017-05-09T21:37:53.264Z,8.59
2017-05-09T21:39:07.579Z,8.59
2017-05-09T21:40:21.450Z,8.75
2017-05-09T21:41:35.383Z,8.9
2017-05-09T21:42:49.532Z,9.05
2017-05-09T21:44:03.776Z,9.03
2017-05-09T21:45:17.514Z,9.21
2017-05-09T21:46:32.328Z,9.27
2017-05-09T21:47:46.065Z,9.39
2017-05-09T21:49:00.741Z,9.44
2017-05-09T21:50:14.341Z,9.37
2017-05-09T21:51:29.114Z,9.45
2017-05-09T21:52:43.120Z,9.48
2017-05-09T21:53:57.480Z,9.55
2017-05-09T21:55:11.376Z,9.51
2017-05-09T21:56:25.166Z,9.58
2017-05-09T21:57:38.643Z,9.67
2017-05-09T21:58:52.790Z,9.67
2017-05-09T22:00:06.297Z,9.58
2017-05-09T22:01:20.446Z,9.49
2017-05-09T22:02:33.952Z,9.52
2017-05-09T22:03:47.854Z,9.49
2017-05-09T22:05:01.668Z,9.45
2017-05-09T22:06:15.196Z,9.54
2017-05-09T22:07:29.048Z,9.55
2017-05-09T22:08:42.612Z,9.56
2017-05-09T22:09:56.274Z,9.56
2017-05-09T22:11:10.751Z,9.59
2017-05-09T22:12:24.488Z,9.58
2017-05-09T22:13:38.320Z,9.64
2017-05-09T22:14:52.116Z,9.62
2017-05-09T22:16:09.182Z,9.69
2017-05-09T22:17:22.696Z,9.67
2017-05-09T22:18:36.327Z,9.66
2017-05-09T22:19:50.053Z,9.66
2017-05-09T22:21:04.284Z,9.72
2017-05-09T22:22:18.087Z,9.45
2017-05-09T22:23:31.943Z,9.48
2017-05-09T22:24:45.695Z,9.54
2017-05-09T22:26:00.268Z,9.47
2017-05-09T22:27:14.046Z,9.55
2017-05-09T22:28:27.892Z,9.47
2017-05-09T22:29:41.628Z,9.51
2017-05-09T22:30:55.534Z,9.47
2017-05-09T22:32:09.248Z,9.47
2017-05-09T22:33:22.754Z,9.54
2017-05-09T22:34:36.582Z,9.45
2017-05-09T22:35:51.130Z,9.55
2017-05-09T22:37:04.943Z,9.48
2017-05-09T22:38:19.071Z,9.48
2017-05-09T22:39:32.474Z,9.52
2017-05-09T22:40:46.352Z,9.48
2017-05-09T22:42:00.123Z,9.48
2017-05-09T22:43:13.669Z,9.42
2017-05-09T22:44:27.415Z,9.45
2017-05-09T22:45:41.408Z,9.39
2017-05-09T22:46:54.905Z,9.45
2017-05-09T22:48:08.436Z,9.48
2017-05-09T22:49:22.176Z,9.44
2017-05-09T22:50:37.134Z,9.36
2017-05-09T22:51:50.632Z,9.45
2017-05-09T22:53:04.970Z,9.45
2017-05-09T22:54:18.722Z,9.31
2017-05-09T22:55:32.601Z,9.33
2017-05-09T22:56:46.966Z,9.34
2017-05-09T22:58:00.551Z,9.3
2017-05-09T22:59:14.009Z,9.33
2017-05-09T23:00:27.567Z,9.3
2017-05-09T23:01:41.320Z,9.22
2017-05-09T23:02:55.532Z,9.3
